createdAt,value
2023-05-09T00:00:27.826Z,19.20
2023-05-09T00:02:54.372Z,19.10
2023-05-09T00:05:20.790Z,19.10
2023-05-09T00:07:47.181Z,19.00
2023-05-09T00:10:13.967Z,19.00
2023-05-09T00:12:40.434Z,18.90
2023-05-09T00:15:06.828Z,18.90
2023-05-09T00:17:33.282Z,18.90
2023-05-09T00:19:59.740Z,18.80
2023-05-09T00:22:26.204Z,18.80
2023-05-09T00:24:52.602Z,18.90
2023-05-09T00:27:19.024Z,18.90
2023-05-09T00:29:45.496Z,18.90
2023-05-09T00:32:11.988Z,18.90
2023-05-09T00:34:38.578Z,18.90
2023-05-09T00:37:04.989Z,18.90
2023-05-09T00:39:31.385Z,18.90
2023-05-09T00:41:57.759Z,18.90
2023-05-09T00:44:24.197Z,18.90
2023-05-09T00:46:50.604Z,18.90
2023-05-09T00:49:16.981Z,18.90
2023-05-09T00:51:43.435Z,18.90
2023-05-09T00:54:09.841Z,18.90
2023-05-09T00:56:36.285Z,18.80
2023-05-09T00:59:02.666Z,18.80
2023-05-09T01:01:29.080Z,18.80
2023-05-09T01:03:55.584Z,18.80
2023-05-09T01:06:21.961Z,18.80
2023-05-09T01:08:48.393Z,18.80
2023-05-09T01:11:15.083Z,18.70
2023-05-09T01:13:41.497Z,18.70
2023-05-09T01:16:07.972Z,18.70
2023-05-09T01:18:34.438Z,18.70
2023-05-09T01:21:00.796Z,18.70
2023-05-09T01:23:27.225Z,18.70
2023-05-09T01:25:53.700Z,18.60
2023-05-09T01:28:20.076Z,18.70
2023-05-09T01:30:46.465Z,18.70
2023-05-09T01:33:12.916Z,18.60
2023-05-09T01:35:39.356Z,18.60
2023-05-09T01:38:05.796Z,18.50
2023-05-09T01:40:32.224Z,18.50
2023-05-09T01:42:58.623Z,18.50
2023-05-09T01:45:24.999Z,18.50
2023-05-09T01:47:51.446Z,18.40
2023-05-09T01:50:17.895Z,18.40
2023-05-09T01:52:44.490Z,18.40
2023-05-09T01:55:10.869Z,18.30
2023-05-09T01:57:37.306Z,18.30
2023-05-09T02:00:03.704Z,18.30
2023-05-09T02:02:30.274Z,18.30
2023-05-09T02:04:56.746Z,18.30
2023-05-09T02:07:23.173Z,18.30
2023-05-09T02:09:49.630Z,18.30
2023-05-09T02:12:16.718Z,18.30
2023-05-09T02:14:43.143Z,18.30
2023-05-09T02:17:09.547Z,18.30
2023-05-09T02:19:35.962Z,18.30
2023-05-09T02:22:02.394Z,18.30
2023-05-09T02:24:28.800Z,18.30
2023-05-09T02:26:55.188Z,18.30
2023-05-09T02:29:21.632Z,18.30
2023-05-09T02:31:48.046Z,18.40
2023-05-09T02:34:14.617Z,18.40
2023-05-09T02:36:41.079Z,18.40
2023-05-09T02:39:07.510Z,18.40
2023-05-09T02:41:33.937Z,18.40
2023-05-09T02:44:00.345Z,18.40
2023-05-09T02:46:26.804Z,18.40
2023-05-09T02:48:53.231Z,18.40
2023-05-09T02:51:19.602Z,18.30
2023-05-09T02:53:46.039Z,18.40
2023-05-09T02:56:12.473Z,18.40
2023-05-09T02:58:38.858Z,18.40
2023-05-09T03:01:05.297Z,18.40
2023-05-09T03:03:31.833Z,18.40
2023-05-09T03:05:58.327Z,18.40
2023-05-09T03:08:24.796Z,18.40
2023-05-09T03:10:51.258Z,18.40
2023-05-09T03:13:17.676Z,18.40
2023-05-09T03:15:44.295Z,18.40
2023-05-09T03:18:10.762Z,18.40
2023-05-09T03:20:37.156Z,18.40
2023-05-09T03:23:03.527Z,18.50
2023-05-09T03:25:29.932Z,18.40
2023-05-09T03:27:56.351Z,18.50
2023-05-09T03:30:22.739Z,18.40
2023-05-09T03:32:49.190Z,18.40
2023-05-09T03:35:16.002Z,18.40
2023-05-09T03:37:42.639Z,18.40
2023-05-09T03:40:09.092Z,18.40
2023-05-09T03:42:35.479Z,18.40
2023-05-09T03:45:01.918Z,18.40
2023-05-09T03:47:28.394Z,18.40
2023-05-09T03:49:54.833Z,18.40
2023-05-09T03:52:21.214Z,18.40
2023-05-09T03:54:47.581Z,18.40
2023-05-09T03:57:14.000Z,18.40
2023-05-09T03:59:40.527Z,18.40
2023-05-09T04:02:06.984Z,18.40
2023-05-09T04:04:33.415Z,18.40
2023-05-09T04:06:59.798Z,18.40
2023-05-09T04:09:26.193Z,18.30
2023-05-09T04:11:52.590Z,18.30
2023-05-09T04:14:18.954Z,18.30
2023-05-09T04:16:45.543Z,18.30
2023-05-09T04:19:11.982Z,18.30
2023-05-09T04:21:38.421Z,18.30
2023-05-09T04:24:04.850Z,18.30
2023-05-09T04:26:31.322Z,18.30
2023-05-09T04:28:57.700Z,18.30
2023-05-09T04:31:24.152Z,18.40
2023-05-09T04:33:50.609Z,18.30
2023-05-09T04:36:17.064Z,18.30
2023-05-09T04:38:43.621Z,18.30
2023-05-09T04:41:09.999Z,18.30
2023-05-09T04:43:36.388Z,18.30
2023-05-09T04:46:02.851Z,18.30
2023-05-09T04:48:29.235Z,18.40
2023-05-09T04:50:55.688Z,18.40
2023-05-09T04:53:22.116Z,18.40
2023-05-09T04:55:48.497Z,18.30
2023-05-09T04:58:14.982Z,18.30
2023-05-09T05:00:41.393Z,18.30
2023-05-09T05:03:07.851Z,18.30
2023-05-09T05:05:37.011Z,18.20
2023-05-09T05:08:03.971Z,18.20
2023-05-09T05:10:30.340Z,18.20
2023-05-09T05:12:56.773Z,18.20
2023-05-09T05:15:23.197Z,18.20
2023-05-09T05:17:49.639Z,18.20
2023-05-09T05:20:16.129Z,18.20
2023-05-09T05:22:42.566Z,18.30
2023-05-09T05:25:09.016Z,18.40
2023-05-09T05:27:35.445Z,18.40
2023-05-09T05:30:01.900Z,18.40
2023-05-09T05:32:28.353Z,18.40
2023-05-09T05:34:54.806Z,18.40
2023-05-09T05:37:21.196Z,18.50
2023-05-09T05:39:47.678Z,18.50
2023-05-09T05:42:14.088Z,18.50
2023-05-09T05:44:40.469Z,18.50
2023-05-09T05:47:06.886Z,18.50
2023-05-09T05:49:33.344Z,18.50
2023-05-09T05:51:59.808Z,18.60
2023-05-09T05:54:26.246Z,18.60
2023-05-09T05:56:52.727Z,18.50
2023-05-09T05:59:19.112Z,18.60
2023-05-09T06:01:45.563Z,18.60
2023-05-09T06:04:12.049Z,18.50
2023-05-09T06:06:38.515Z,18.60
2023-05-09T06:09:04.948Z,18.60
2023-05-09T06:11:31.341Z,18.60
2023-05-09T06:13:57.807Z,18.60
2023-05-09T06:16:24.281Z,18.60
2023-05-09T06:18:51.516Z,18.60
2023-05-09T06:21:19.111Z,18.60
2023-05-09T06:23:57.595Z,18.60
2023-05-09T06:26:31.217Z,18.60
2023-05-09T06:28:57.617Z,18.60
2023-05-09T06:31:25.623Z,18.60
2023-05-09T06:33:52.378Z,18.70
2023-05-09T06:36:18.818Z,18.70
2023-05-09T06:38:45.226Z,18.80
2023-05-09T06:41:11.661Z,18.80
2023-05-09T06:43:38.052Z,18.80
2023-05-09T06:46:04.575Z,18.80
2023-05-09T06:48:31.051Z,18.80
2023-05-09T06:50:57.505Z,18.80
2023-05-09T06:53:23.947Z,18.80
2023-05-09T06:55:50.528Z,18.80
2023-05-09T06:58:16.973Z,18.80
2023-05-09T07:00:43.356Z,18.80
2023-05-09T07:03:09.739Z,18.80
2023-05-09T07:05:36.272Z,18.80
2023-05-09T07:08:02.707Z,18.80
2023-05-09T07:10:29.093Z,18.90
2023-05-09T07:12:55.468Z,18.90
2023-05-09T07:15:36.815Z,18.90
2023-05-09T07:18:07.423Z,18.80
2023-05-09T07:20:33.863Z,18.80
2023-05-09T07:23:00.261Z,18.90
2023-05-09T07:25:26.764Z,18.90
2023-05-09T07:27:53.207Z,18.90
2023-05-09T07:30:19.663Z,18.90
2023-05-09T07:32:46.103Z,19.00
2023-05-09T07:35:12.808Z,19.00
2023-05-09T07:37:39.413Z,19.10
2023-05-09T07:40:05.942Z,19.20
2023-05-09T07:42:32.332Z,19.20
2023-05-09T07:44:58.699Z,19.30
2023-05-09T07:47:25.134Z,19.50
2023-05-09T07:49:51.606Z,19.60
2023-05-09T07:52:18.147Z,19.70
2023-05-09T07:54:44.606Z,19.90
2023-05-09T07:57:10.989Z,20.10
2023-05-09T07:59:37.481Z,20.30
2023-05-09T08:02:03.925Z,20.50
2023-05-09T08:04:30.444Z,20.70
2023-05-09T08:06:56.855Z,20.80
2023-05-09T08:09:23.270Z,20.80
2023-05-09T08:11:49.706Z,21.00
2023-05-09T08:14:16.104Z,21.10
2023-05-09T08:16:42.489Z,21.20
2023-05-09T08:19:08.910Z,21.30
2023-05-09T08:21:35.313Z,21.30
2023-05-09T08:24:01.810Z,21.30
2023-05-09T08:26:28.219Z,21.30
2023-05-09T08:28:54.608Z,21.40
2023-05-09T08:31:21.050Z,21.50
2023-05-09T08:33:47.566Z,21.50
2023-05-09T08:36:14.024Z,21.50
2023-05-09T08:38:40.620Z,21.70
2023-05-09T08:41:07.115Z,21.80
2023-05-09T08:43:33.504Z,22.00
2023-05-09T08:46:00.031Z,22.10
2023-05-09T08:48:26.608Z,22.20
2023-05-09T08:50:52.968Z,22.20
2023-05-09T08:53:19.371Z,22.30
2023-05-09T08:55:45.748Z,22.30
2023-05-09T08:58:12.169Z,22.20
2023-05-09T09:00:38.549Z,22.20
2023-05-09T09:03:05.024Z,22.20
2023-05-09T09:05:41.211Z,22.30
2023-05-09T09:08:08.783Z,22.40
2023-05-09T09:10:35.673Z,22.60
2023-05-09T09:13:02.113Z,22.70
2023-05-09T09:15:28.609Z,22.80
2023-05-09T09:17:56.080Z,22.80
2023-05-09T09:20:22.557Z,22.90
2023-05-09T09:22:48.999Z,23.00
2023-05-09T09:25:15.405Z,23.00
2023-05-09T09:27:41.831Z,23.10
2023-05-09T09:30:08.280Z,23.30
2023-05-09T09:32:34.731Z,23.40
2023-05-09T09:35:01.194Z,23.50
2023-05-09T09:37:27.664Z,23.80
2023-05-09T09:39:54.075Z,23.90
2023-05-09T09:42:20.440Z,24.10
2023-05-09T09:44:46.868Z,24.20
2023-05-09T09:47:13.347Z,24.20
2023-05-09T09:49:39.718Z,24.30
2023-05-09T09:52:06.097Z,24.30
2023-05-09T09:54:32.483Z,24.20
2023-05-09T09:56:58.890Z,24.00
2023-05-09T09:59:25.319Z,24.10
2023-05-09T10:01:51.695Z,24.10
2023-05-09T10:04:18.168Z,24.10
2023-05-09T10:06:44.618Z,24.10
2023-05-09T10:09:11.013Z,24.10
2023-05-09T10:11:37.460Z,24.20
2023-05-09T10:14:03.930Z,24.10
2023-05-09T10:16:40.145Z,24.00
2023-05-09T10:19:09.896Z,24.20
2023-05-09T10:21:37.951Z,24.10
2023-05-09T10:24:04.440Z,24.00
2023-05-09T10:26:30.840Z,24.00
2023-05-09T10:28:57.264Z,24.00
2023-05-09T10:31:23.759Z,24.10
2023-05-09T10:33:50.198Z,24.20
2023-05-09T10:36:16.675Z,24.20
2023-05-09T10:38:43.162Z,24.40
2023-05-09T10:41:09.630Z,24.50
2023-05-09T10:43:36.778Z,24.70
2023-05-09T10:46:03.457Z,24.70
2023-05-09T10:48:29.993Z,24.70
2023-05-09T10:50:56.437Z,24.60
2023-05-09T10:53:22.835Z,24.50
2023-05-09T10:55:49.262Z,24.50
2023-05-09T10:58:15.691Z,24.50
2023-05-09T11:00:42.073Z,24.60
2023-05-09T11:03:08.592Z,24.60
2023-05-09T11:05:35.121Z,24.60
2023-05-09T11:08:01.572Z,24.60
2023-05-09T11:10:27.983Z,24.50
2023-05-09T11:12:57.369Z,24.40
2023-05-09T11:15:24.360Z,24.30
2023-05-09T11:17:51.059Z,24.10
2023-05-09T11:20:17.604Z,23.80
2023-05-09T11:22:44.057Z,23.50
2023-05-09T11:25:10.634Z,23.30
2023-05-09T11:27:37.019Z,23.10
2023-05-09T11:30:03.480Z,22.90
2023-05-09T11:32:29.940Z,22.70
2023-05-09T11:34:56.383Z,22.60
2023-05-09T11:37:22.831Z,22.60
2023-05-09T11:39:49.216Z,22.60
2023-05-09T11:42:15.670Z,22.50
2023-05-09T11:44:42.110Z,22.50
2023-05-09T11:47:08.517Z,22.50
2023-05-09T11:49:34.952Z,22.50
2023-05-09T11:52:01.330Z,22.50
2023-05-09T11:54:27.718Z,22.50
2023-05-09T11:56:54.106Z,22.50
2023-05-09T11:59:20.504Z,22.50
2023-05-09T12:01:46.934Z,22.50
2023-05-09T12:04:13.366Z,22.50
2023-05-09T12:06:39.828Z,22.50
2023-05-09T12:09:06.287Z,22.50
2023-05-09T12:11:32.735Z,22.50
2023-05-09T12:13:59.174Z,22.50
2023-05-09T12:16:25.700Z,22.40
2023-05-09T12:18:52.204Z,22.30
2023-05-09T12:21:18.593Z,22.30
2023-05-09T12:23:45.701Z,22.30
2023-05-09T12:26:12.132Z,22.20
2023-05-09T12:28:38.567Z,22.10
2023-05-09T12:31:05.046Z,22.10
2023-05-09T12:33:31.512Z,22.20
2023-05-09T12:35:57.906Z,22.20
2023-05-09T12:38:24.371Z,22.20
2023-05-09T12:40:50.835Z,22.20
2023-05-09T12:43:17.241Z,22.20
2023-05-09T12:45:43.666Z,22.20
2023-05-09T12:48:10.072Z,22.20
2023-05-09T12:50:36.497Z,22.20
2023-05-09T12:53:03.788Z,22.30
2023-05-09T12:55:30.300Z,22.30
2023-05-09T12:57:56.686Z,22.30
2023-05-09T13:00:23.070Z,22.40
2023-05-09T13:02:49.595Z,22.50
2023-05-09T13:05:16.389Z,22.60
2023-05-09T13:07:42.981Z,22.60
2023-05-09T13:10:11.893Z,22.50
2023-05-09T13:12:38.804Z,22.40
2023-05-09T13:15:05.278Z,22.30
2023-05-09T13:17:31.774Z,22.30
2023-05-09T13:19:58.387Z,22.20
2023-05-09T13:22:24.880Z,22.10
2023-05-09T13:24:51.316Z,22.00
2023-05-09T13:27:17.748Z,21.90
2023-05-09T13:29:44.356Z,21.90
2023-05-09T13:32:10.864Z,21.80
2023-05-09T13:34:37.250Z,21.80
2023-05-09T13:37:03.675Z,21.80
2023-05-09T13:39:30.077Z,21.80
2023-05-09T13:41:56.462Z,21.70
2023-05-09T13:44:22.862Z,21.70
2023-05-09T13:46:49.356Z,21.70
2023-05-09T13:49:15.775Z,21.60
2023-05-09T13:51:42.199Z,21.50
2023-05-09T13:54:08.610Z,21.50
2023-05-09T13:56:35.025Z,21.50
2023-05-09T13:59:01.497Z,21.50
2023-05-09T14:01:27.939Z,21.40
2023-05-09T14:03:54.416Z,21.30
2023-05-09T14:06:20.888Z,21.10
2023-05-09T14:08:47.337Z,21.00
2023-05-09T14:11:13.781Z,21.00
2023-05-09T14:13:40.225Z,21.00
2023-05-09T14:16:06.786Z,20.90
2023-05-09T14:18:33.341Z,20.80
2023-05-09T14:20:59.714Z,20.70
2023-05-09T14:23:26.159Z,20.60
2023-05-09T14:25:52.557Z,20.50
2023-05-09T14:28:18.944Z,20.50
2023-05-09T14:30:45.576Z,20.50
2023-05-09T14:33:12.028Z,20.50
2023-05-09T14:35:41.064Z,20.30
2023-05-09T14:38:07.970Z,20.30
2023-05-09T14:40:34.364Z,20.30
2023-05-09T14:43:00.788Z,20.30
2023-05-09T14:45:27.245Z,20.30
2023-05-09T14:47:53.732Z,20.20
2023-05-09T14:50:20.132Z,20.20
2023-05-09T14:52:46.795Z,20.10
2023-05-09T14:55:13.155Z,20.00
2023-05-09T14:57:39.553Z,20.00
2023-05-09T15:00:19.729Z,19.90
2023-05-09T15:02:48.091Z,19.80
2023-05-09T15:05:14.534Z,19.70
2023-05-09T15:07:40.917Z,19.70
2023-05-09T15:10:07.300Z,19.70
2023-05-09T15:12:33.739Z,19.70
2023-05-09T15:15:00.183Z,19.70
2023-05-09T15:17:26.619Z,19.70
2023-05-09T15:19:53.008Z,19.70
2023-05-09T15:22:19.435Z,19.70
2023-05-09T15:24:45.885Z,19.70
2023-05-09T15:27:12.284Z,19.70
2023-05-09T15:29:38.710Z,19.80
2023-05-09T15:32:05.141Z,19.70
2023-05-09T15:34:31.543Z,19.70
2023-05-09T15:36:57.942Z,19.70
2023-05-09T15:39:24.421Z,19.60
2023-05-09T15:41:50.866Z,19.60
2023-05-09T15:44:17.261Z,19.60
2023-05-09T15:46:43.681Z,19.60
2023-05-09T15:49:10.196Z,19.50
2023-05-09T15:51:36.575Z,19.50
2023-05-09T15:54:02.956Z,19.50
2023-05-09T15:56:29.411Z,19.50
2023-05-09T15:58:55.795Z,19.40
2023-05-09T16:01:22.261Z,19.40
2023-05-09T16:03:48.905Z,19.40
2023-05-09T16:06:15.577Z,19.40
2023-05-09T16:08:41.979Z,19.30
2023-05-09T16:11:08.390Z,19.20
2023-05-09T16:13:36.041Z,19.10
2023-05-09T16:16:02.715Z,19.10
2023-05-09T16:18:29.173Z,19.10
2023-05-09T16:20:55.571Z,19.10
2023-05-09T16:23:21.991Z,19.10
2023-05-09T16:25:48.441Z,19.10
2023-05-09T16:28:14.840Z,19.10
2023-05-09T16:30:41.223Z,19.10
2023-05-09T16:33:07.702Z,19.10
2023-05-09T16:35:34.109Z,19.00
2023-05-09T16:38:00.540Z,19.00
2023-05-09T16:40:26.952Z,18.90
2023-05-09T16:42:53.395Z,18.80
2023-05-09T16:45:19.801Z,18.80
2023-05-09T16:47:46.405Z,18.80
2023-05-09T16:50:12.941Z,18.80
2023-05-09T16:52:39.456Z,18.80
2023-05-09T16:55:05.920Z,18.70
2023-05-09T16:57:32.327Z,18.70
2023-05-09T16:59:58.713Z,18.80
2023-05-09T17:02:25.195Z,18.80
2023-05-09T17:04:51.747Z,18.70
2023-05-09T17:07:18.208Z,18.70
2023-05-09T17:09:44.615Z,18.70
2023-05-09T17:12:11.042Z,18.70
2023-05-09T17:14:37.452Z,18.60
2023-05-09T17:17:03.900Z,18.70
2023-05-09T17:19:30.404Z,18.70
2023-05-09T17:21:56.822Z,18.60
2023-05-09T17:24:23.265Z,18.60
2023-05-09T17:26:49.645Z,18.60
2023-05-09T17:29:16.093Z,18.50
2023-05-09T17:31:42.577Z,18.50
2023-05-09T17:34:08.994Z,18.50
2023-05-09T17:36:35.460Z,18.50
2023-05-09T17:39:01.952Z,18.50
2023-05-09T17:41:28.385Z,18.50
2023-05-09T17:43:54.831Z,18.50
2023-05-09T17:46:21.541Z,18.40
2023-05-09T17:48:48.069Z,18.40
2023-05-09T17:51:14.601Z,18.40
2023-05-09T17:53:41.037Z,18.40
2023-05-09T17:56:07.524Z,18.30
2023-05-09T17:58:34.023Z,18.30
2023-05-09T18:01:00.457Z,18.30
2023-05-09T18:03:26.999Z,18.30
2023-05-09T18:05:53.591Z,18.30
2023-05-09T18:08:20.020Z,18.30
2023-05-09T18:10:46.482Z,18.20
2023-05-09T18:13:12.966Z,18.30
2023-05-09T18:15:39.397Z,18.30
2023-05-09T18:18:05.950Z,18.30
2023-05-09T18:20:32.402Z,18.30
2023-05-09T18:22:58.793Z,18.30
2023-05-09T18:25:25.159Z,18.30
2023-05-09T18:27:51.627Z,18.30
2023-05-09T18:30:18.201Z,18.30
2023-05-09T18:32:44.744Z,18.30
2023-05-09T18:35:11.214Z,18.30
2023-05-09T18:37:37.584Z,18.30
2023-05-09T18:40:03.988Z,18.30
2023-05-09T18:42:30.443Z,18.20
2023-05-09T18:44:56.920Z,18.20
2023-05-09T18:47:23.458Z,18.20
2023-05-09T18:49:49.890Z,18.20
2023-05-09T18:52:16.284Z,18.20
2023-05-09T18:54:42.697Z,18.10
2023-05-09T18:57:09.147Z,18.10
2023-05-09T18:59:35.637Z,18.20
2023-05-09T19:02:02.106Z,18.20
2023-05-09T19:04:28.569Z,18.10
2023-05-09T19:06:55.046Z,18.00
2023-05-09T19:09:21.620Z,18.00
2023-05-09T19:11:48.045Z,18.00
2023-05-09T19:14:14.617Z,18.00
2023-05-09T19:16:41.091Z,18.00
2023-05-09T19:19:07.512Z,18.00
2023-05-09T19:21:33.967Z,18.00
2023-05-09T19:24:00.349Z,18.00
2023-05-09T19:26:26.776Z,18.00
2023-05-09T19:28:53.271Z,18.00
2023-05-09T19:31:19.771Z,18.00
2023-05-09T19:33:46.343Z,18.00
2023-05-09T19:36:12.747Z,18.00
2023-05-09T19:38:39.209Z,18.00
2023-05-09T19:41:05.624Z,18.00
2023-05-09T19:43:32.081Z,18.00
2023-05-09T19:45:58.622Z,18.00
2023-05-09T19:48:25.251Z,18.00
2023-05-09T19:50:51.732Z,18.00
2023-05-09T19:53:18.135Z,18.00
2023-05-09T19:55:44.728Z,17.90
2023-05-09T19:58:11.186Z,17.90
2023-05-09T20:00:37.595Z,17.90
2023-05-09T20:03:04.333Z,17.90
2023-05-09T20:05:30.839Z,17.90
2023-05-09T20:07:57.223Z,17.90
2023-05-09T20:10:23.611Z,17.90
2023-05-09T20:12:50.018Z,17.90
2023-05-09T20:15:16.433Z,17.80
2023-05-09T20:17:42.899Z,17.80
2023-05-09T20:20:09.381Z,17.80
2023-05-09T20:22:35.765Z,17.80
2023-05-09T20:25:02.176Z,17.80
2023-05-09T20:27:28.587Z,17.80
2023-05-09T20:29:55.036Z,17.80
2023-05-09T20:32:21.672Z,17.80
2023-05-09T20:34:48.115Z,17.70
2023-05-09T20:37:14.785Z,17.70
2023-05-09T20:39:41.178Z,17.80
2023-05-09T20:42:07.561Z,17.70
2023-05-09T20:44:34.185Z,17.70
2023-05-09T20:47:00.579Z,17.70
2023-05-09T20:49:26.967Z,17.70
2023-05-09T20:51:53.357Z,17.70
2023-05-09T20:54:19.761Z,17.70
2023-05-09T20:56:46.342Z,17.70
2023-05-09T20:59:12.740Z,17.70
2023-05-09T21:01:39.182Z,17.70
2023-05-09T21:04:05.620Z,17.70
2023-05-09T21:06:32.165Z,17.70
2023-05-09T21:08:58.562Z,17.60
2023-05-09T21:11:24.981Z,17.50
2023-05-09T21:13:51.653Z,17.60
2023-05-09T21:16:18.038Z,17.60
2023-05-09T21:18:44.636Z,17.60
2023-05-09T21:21:11.032Z,17.50
2023-05-09T21:23:37.413Z,17.60
2023-05-09T21:26:03.815Z,17.60
2023-05-09T21:28:30.199Z,17.60
2023-05-09T21:30:56.622Z,17.50
2023-05-09T21:33:23.036Z,17.50
2023-05-09T21:35:49.419Z,17.60
2023-05-09T21:38:15.799Z,17.60
2023-05-09T21:40:42.183Z,17.50
2023-05-09T21:43:08.599Z,17.50
2023-05-09T21:45:35.018Z,17.50
2023-05-09T21:48:01.516Z,17.50
2023-05-09T21:50:27.987Z,17.40
2023-05-09T21:52:54.366Z,17.30
2023-05-09T21:55:20.752Z,17.20
2023-05-09T21:57:47.136Z,17.30
2023-05-09T22:00:13.760Z,17.20
2023-05-09T22:02:40.366Z,17.20
2023-05-09T22:05:06.806Z,17.20
2023-05-09T22:07:33.185Z,17.20
2023-05-09T22:09:59.574Z,17.20
2023-05-09T22:12:25.949Z,17.10
2023-05-09T22:14:56.235Z,17.10
2023-05-09T22:17:23.202Z,17.00
2023-05-09T22:19:49.601Z,17.10
2023-05-09T22:22:16.013Z,17.10
2023-05-09T22:24:42.415Z,17.10
2023-05-09T22:27:08.812Z,17.00
2023-05-09T22:29:35.202Z,17.00
2023-05-09T22:32:01.615Z,17.00
2023-05-09T22:34:28.009Z,17.00
2023-05-09T22:36:54.400Z,16.90
2023-05-09T22:39:20.775Z,16.90
2023-05-09T22:41:47.146Z,16.90
2023-05-09T22:44:13.546Z,16.90
2023-05-09T22:46:39.922Z,16.90
2023-05-09T22:49:06.352Z,16.90
2023-05-09T22:51:32.778Z,16.70
2023-05-09T22:53:59.168Z,16.50
2023-05-09T22:56:25.612Z,16.30
2023-05-09T22:58:52.040Z,16.10
2023-05-09T23:01:18.486Z,16.00
2023-05-09T23:03:44.925Z,15.90
2023-05-09T23:06:11.398Z,15.80
2023-05-09T23:08:37.781Z,15.70
2023-05-09T23:11:04.163Z,15.70
2023-05-09T23:13:30.673Z,15.70
2023-05-09T23:15:57.124Z,15.60
2023-05-09T23:18:23.599Z,15.50
2023-05-09T23:20:50.057Z,15.40
2023-05-09T23:23:16.501Z,15.40
2023-05-09T23:25:42.890Z,15.30
2023-05-09T23:28:09.266Z,15.30
2023-05-09T23:30:35.689Z,15.20
2023-05-09T23:33:02.105Z,15.20
2023-05-09T23:35:28.484Z,15.10
2023-05-09T23:37:54.899Z,15.20
2023-05-09T23:40:21.312Z,15.20
2023-05-09T23:42:47.750Z,15.20
2023-05-09T23:45:14.887Z,15.20
2023-05-09T23:47:41.360Z,15.30
2023-05-09T23:50:07.822Z,15.30
2023-05-09T23:52:34.218Z,15.30
2023-05-09T23:55:00.698Z,15.30
2023-05-09T23:57:27.084Z,15.30
2023-05-09T23:59:53.458Z,15.30
